Time;durP1;ratioP1;P1;durP2;ratioP2;P2;SDS_P1;SDS_P2;PMS_P1;PMS_P2;Temp;Humidity;BMP_temperature;BMP_pressure;BME280_temperature;BME280_humidity;BME280_pressure;Samples;Min_cycle;Max_cycle;Signal;HPM_P1;HPM_P2
2022/10/15 00:01:46;;;;;;;2.55;1.80;;;;;;;;;;5072429;28;20040;-71
2022/10/15 00:04:12;;;;;;;3.95;2.25;;;;;;;;;;5075607;28;20555;-71
2022/10/15 00:06:39;;;;;;;5.38;1.95;;;;;;;;;;5073885;28;20045;-71
2022/10/15 00:09:05;;;;;;;3.30;2.00;;;;;;;;;;5073015;28;20036;-71
2022/10/15 00:11:31;;;;;;;2.92;2.05;;;;;;;;;;5073686;28;20047;-71
2022/10/15 00:13:58;;;;;;;4.97;1.92;;;;;;;;;;5063579;28;20210;-71
2022/10/15 00:16:25;;;;;;;2.60;1.65;;;;;;;;;;5069773;28;20452;-71
2022/10/15 00:18:51;;;;;;;2.85;1.95;;;;;;;;;;5065187;28;20047;-70
2022/10/15 00:21:18;;;;;;;6.47;2.30;;;;;;;;;;5062067;28;20043;-71
2022/10/15 00:23:44;;;;;;;5.50;1.63;;;;;;;;;;5078983;28;20083;-71
2022/10/15 00:26:14;;;;;;;7.18;2.88;;;;;;;;;;5054572;28;20529;-71
2022/10/15 00:28:41;;;;;;;2.40;1.50;;;;;;;;;;5078532;28;20040;-71
2022/10/15 00:31:11;;;;;;;4.55;1.80;;;;;;;;;;5079249;28;20699;-71
2022/10/15 00:33:37;;;;;;;4.30;1.85;;;;;;;;;;5079602;28;20120;-71
2022/10/15 00:36:03;;;;;;;4.82;2.13;;;;;;;;;;5057940;28;20040;-71
2022/10/15 00:38:29;;;;;;;2.25;1.42;;;;;;;;;;5078713;28;20618;-71
2022/10/15 00:40:56;;;;;;;4.18;1.60;;;;;;;;;;5078290;28;20029;-71
2022/10/15 00:43:54;;;;;;;2.47;1.55;;;;;;;;;;5059696;28;20048;-71
2022/10/15 00:46:27;;;;;;;2.90;1.90;;;;;;;;;;5043174;28;20050;-70
2022/10/15 00:48:55;;;;;;;3.05;1.40;;;;;;;;;;5078186;28;20755;-71
2022/10/15 00:51:22;;;;;;;2.33;1.40;;;;;;;;;;5079179;28;20583;-71
2022/10/15 00:53:52;;;;;;;4.68;1.30;;;;;;;;;;5080125;28;20965;-72
2022/10/15 00:56:20;;;;;;;2.80;1.30;;;;;;;;;;5058535;28;20048;-71
2022/10/15 00:58:46;;;;;;;3.00;1.60;;;;;;;;;;5079023;28;20068;-71
2022/10/15 01:01:12;;;;;;;1.98;1.35;;;;;;;;;;5054141;28;20537;-73
2022/10/15 01:03:38;;;;;;;3.05;1.58;;;;;;;;;;5061092;28;20037;-72
2022/10/15 01:06:05;;;;;;;2.17;1.27;;;;;;;;;;5054222;28;20102;-72
2022/10/15 01:08:31;;;;;;;3.70;1.45;;;;;;;;;;5070515;28;20562;-71
2022/10/15 01:11:16;;;;;;;2.20;1.35;;;;;;;;;;5059917;28;20041;-71
2022/10/15 01:14:01;;;;;;;3.13;1.70;;;;;;;;;;5054181;28;20060;-71
2022/10/15 01:16:32;;;;;;;3.75;1.00;;;;;;;;;;5077202;28;20052;-71
2022/10/15 01:19:01;;;;;;;1.58;1.00;;;;;;;;;;5058694;28;20524;-71
2022/10/15 01:21:32;;;;;;;1.17;0.80;;;;;;;;;;5053490;28;20048;-72
2022/10/15 01:24:14;;;;;;;3.08;0.90;;;;;;;;;;5069111;28;20044;-72
2022/10/15 01:26:53;;;;;;;7.47;1.58;;;;;;;;;;5056215;28;20052;-71
2022/10/15 01:29:30;;;;;;;4.57;1.10;;;;;;;;;;5053664;28;20056;-71
2022/10/15 01:32:02;;;;;;;1.63;1.00;;;;;;;;;;5077933;28;20159;-71
2022/10/15 01:34:28;;;;;;;;;;;;;;;;;;5080246;28;20678;-72
2022/10/15 01:37:10;;;;;;;1.83;0.90;;;;;;;;;;5074790;28;19924;-71
2022/10/15 01:39:45;;;;;;;2.38;1.17;;;;;;;;;;5076448;28;20182;-72
2022/10/15 01:42:20;;;;;;;2.30;1.33;;;;;;;;;;5077768;28;20037;-71
2022/10/15 01:44:51;;;;;;;1.33;0.88;;;;;;;;;;5077385;28;20044;-71
2022/10/15 01:47:20;;;;;;;1.05;0.90;;;;;;;;;;5046728;28;20506;-71
2022/10/15 01:49:47;;;;;;;1.52;0.73;;;;;;;;;;5046862;28;20045;-70
2022/10/15 01:52:16;;;;;;;1.40;0.57;;;;;;;;;;5058685;28;20144;-70
2022/10/15 01:54:43;;;;;;;0.93;0.60;;;;;;;;;;5077366;28;20029;-69
2022/10/15 01:57:10;;;;;;;0.68;0.60;;;;;;;;;;5076790;28;20086;-70
2022/10/15 01:59:36;;;;;;;1.50;0.65;;;;;;;;;;5067618;28;20040;-70
2022/10/15 02:02:02;;;;;;;0.50;0.50;;;;;;;;;;5077438;28;20071;-70
2022/10/15 02:04:30;;;;;;;1.20;0.75;;;;;;;;;;5053416;28;20084;-70
2022/10/15 02:07:06;;;;;;;1.40;0.70;;;;;;;;;;5051606;28;20036;-71
2022/10/15 02:09:35;;;;;;;2.17;1.38;;;;;;;;;;5058773;28;20044;-71
2022/10/15 02:12:17;;;;;;;3.60;1.23;;;;;;;;;;5058591;28;20093;-71
2022/10/15 02:14:54;;;;;;;1.52;0.95;;;;;;;;;;5042651;28;20055;-70
2022/10/15 02:17:27;;;;;;;3.60;1.00;;;;;;;;;;5063804;28;20125;-70
2022/10/15 02:19:57;;;;;;;3.33;1.15;;;;;;;;;;5075472;28;20044;-70
2022/10/15 02:22:26;;;;;;;2.10;1.13;;;;;;;;;;5059338;28;20054;-70
2022/10/15 02:24:56;;;;;;;5.20;1.20;;;;;;;;;;5076468;28;20040;-71
2022/10/15 02:27:23;;;;;;;3.28;1.35;;;;;;;;;;5054332;28;20040;-70
2022/10/15 02:29:51;;;;;;;1.70;0.80;;;;;;;;;;5052776;28;20441;-71
2022/10/15 02:32:19;;;;;;;1.52;0.73;;;;;;;;;;5059962;28;20123;-70
2022/10/15 02:34:46;;;;;;;5.18;1.48;;;;;;;;;;5060005;28;20604;-70
2022/10/15 02:37:12;;;;;;;2.92;1.00;;;;;;;;;;5070155;28;20040;-72
2022/10/15 02:39:38;;;;;;;4.75;1.60;;;;;;;;;;5072444;28;20041;-70
2022/10/15 02:42:05;;;;;;;1.55;1.10;;;;;;;;;;5082853;28;20040;-71
2022/10/15 02:44:31;;;;;;;1.40;0.85;;;;;;;;;;5083872;28;20048;-70
2022/10/15 02:46:58;;;;;;;10.90;2.85;;;;;;;;;;5084088;28;20141;-71
2022/10/15 02:49:24;;;;;;;1.20;1.00;;;;;;;;;;5083790;28;20040;-71
2022/10/15 02:51:50;;;;;;;3.15;1.20;;;;;;;;;;5058054;28;20044;-71
2022/10/15 02:54:16;;;;;;;2.53;1.08;;;;;;;;;;5082541;28;20036;-71
2022/10/15 02:56:43;;;;;;;4.40;2.00;;;;;;;;;;5054662;28;20098;-71
2022/10/15 02:59:09;;;;;;;7.43;1.40;;;;;;;;;;5083500;28;20996;-70
2022/10/15 03:01:35;;;;;;;1.95;1.23;;;;;;;;;;5059111;28;20052;-70
2022/10/15 03:04:01;;;;;;;1.92;1.60;;;;;;;;;;5084324;28;20036;-71
2022/10/15 03:06:28;;;;;;;5.63;2.25;;;;;;;;;;5058957;28;20071;-71
2022/10/15 03:08:54;;;;;;;6.28;1.75;;;;;;;;;;5059058;28;20160;-70
2022/10/15 03:11:20;;;;;;;8.75;1.80;;;;;;;;;;5084559;28;20068;-71
2022/10/15 03:13:46;;;;;;;3.60;1.65;;;;;;;;;;5060127;28;20068;-71
2022/10/15 03:16:12;;;;;;;2.88;1.20;;;;;;;;;;5083965;28;20040;-70
2022/10/15 03:18:38;;;;;;;11.45;2.50;;;;;;;;;;5084545;28;20102;-70
2022/10/15 03:21:05;;;;;;;6.30;1.38;;;;;;;;;;5051088;28;20039;-71
2022/10/15 03:23:31;;;;;;;3.55;2.25;;;;;;;;;;5083069;28;20515;-70
2022/10/15 03:25:57;;;;;;;4.57;2.08;;;;;;;;;;5084817;28;20051;-70
2022/10/15 03:28:23;;;;;;;3.70;1.27;;;;;;;;;;5075148;28;20044;-72
2022/10/15 03:30:49;;;;;;;6.72;1.40;;;;;;;;;;5039409;28;20860;-71
2022/10/15 03:33:16;;;;;;;4.45;1.30;;;;;;;;;;5064167;28;20581;-71
2022/10/15 03:35:42;;;;;;;3.15;1.40;;;;;;;;;;5064804;28;20052;-71
2022/10/15 03:38:08;;;;;;;2.42;1.20;;;;;;;;;;5064361;28;20525;-71
2022/10/15 03:40:34;;;;;;;6.38;1.35;;;;;;;;;;5065173;28;20041;-71
2022/10/15 03:43:00;;;;;;;2.38;1.30;;;;;;;;;;5061593;28;20047;-70
2022/10/15 03:45:26;;;;;;;6.25;1.70;;;;;;;;;;5063368;28;20041;-71
2022/10/15 03:47:53;;;;;;;2.58;1.30;;;;;;;;;;5062553;28;20133;-71
2022/10/15 03:50:19;;;;;;;4.60;1.02;;;;;;;;;;5044173;28;20044;-71
2022/10/15 03:52:46;;;;;;;5.18;1.40;;;;;;;;;;5040581;28;20033;-71
2022/10/15 03:55:12;;;;;;;8.00;2.72;;;;;;;;;;5058332;28;20052;-71
2022/10/15 03:57:38;;;;;;;3.35;1.23;;;;;;;;;;5058695;28;20051;-71
2022/10/15 04:00:05;;;;;;;4.40;2.25;;;;;;;;;;5037575;28;20064;-71
2022/10/15 04:02:32;;;;;;;2.22;1.10;;;;;;;;;;5058224;28;20101;-70
2022/10/15 04:04:58;;;;;;;3.58;1.48;;;;;;;;;;5049519;28;20539;-71
2022/10/15 04:07:24;;;;;;;7.15;2.03;;;;;;;;;;5059842;28;20084;-71
2022/10/15 04:09:50;;;;;;;4.75;2.08;;;;;;;;;;5060157;28;20120;-71
2022/10/15 04:12:17;;;;;;;3.10;1.17;;;;;;;;;;5033142;28;20143;-71
2022/10/15 04:14:43;;;;;;;5.85;1.58;;;;;;;;;;5059508;28;20041;-71
2022/10/15 04:17:09;;;;;;;3.20;1.40;;;;;;;;;;5057553;28;20055;-71
2022/10/15 04:19:35;;;;;;;5.25;1.27;;;;;;;;;;5058440;28;20044;-71
2022/10/15 04:22:01;;;;;;;4.82;1.95;;;;;;;;;;5034196;28;20534;-70
2022/10/15 04:24:27;;;;;;;2.90;1.33;;;;;;;;;;5058575;28;20081;-71
2022/10/15 04:26:53;;;;;;;2.35;1.20;;;;;;;;;;5034492;28;20038;-70
2022/10/15 04:29:20;;;;;;;4.72;1.40;;;;;;;;;;5035074;28;20086;-71
2022/10/15 04:31:46;;;;;;;5.80;1.17;;;;;;;;;;5041467;28;20562;-71
2022/10/15 04:34:12;;;;;;;1.85;0.85;;;;;;;;;;5056993;28;20059;-70
2022/10/15 04:36:38;;;;;;;3.80;1.60;;;;;;;;;;5058560;28;20137;-71
2022/10/15 04:39:05;;;;;;;5.10;1.77;;;;;;;;;;5042343;28;20043;-71
2022/10/15 04:41:31;;;;;;;3.70;1.10;;;;;;;;;;5059850;28;20159;-71
2022/10/15 04:43:57;;;;;;;3.95;1.10;;;;;;;;;;5057335;28;20103;-71
2022/10/15 04:46:24;;;;;;;3.08;1.30;;;;;;;;;;5058448;28;20085;-71
2022/10/15 04:48:51;;;;;;;3.10;2.17;;;;;;;;;;5042398;28;20033;-70
2022/10/15 04:51:18;;;;;;;2.45;1.25;;;;;;;;;;5049327;28;20404;-71
2022/10/15 04:53:44;;;;;;;0.90;0.70;;;;;;;;;;5059813;28;20052;-71
2022/10/15 04:56:14;;;;;;;2.22;1.05;;;;;;;;;;5057749;28;20135;-70
2022/10/15 04:58:40;;;;;;;2.90;1.02;;;;;;;;;;5041822;28;20283;-71
2022/10/15 05:01:08;;;;;;;3.53;1.27;;;;;;;;;;5057268;28;20160;-71
2022/10/15 05:03:34;;;;;;;1.70;1.02;;;;;;;;;;5040034;28;20498;-71
2022/10/15 05:06:05;;;;;;;1.80;1.10;;;;;;;;;;5041014;28;20548;-71
2022/10/15 05:08:32;;;;;;;2.22;1.00;;;;;;;;;;5058109;28;20045;-70
2022/10/15 05:11:02;;;;;;;2.58;1.85;;;;;;;;;;5041464;28;20048;-70
2022/10/15 05:13:28;;;;;;;4.45;1.35;;;;;;;;;;5058999;28;20049;-71
2022/10/15 05:15:54;;;;;;;4.05;1.00;;;;;;;;;;5056735;28;20051;-71
2022/10/15 05:18:20;;;;;;;2.45;1.17;;;;;;;;;;5041456;28;20041;-71
2022/10/15 05:20:47;;;;;;;3.40;1.45;;;;;;;;;;5040210;28;20087;-72
2022/10/15 05:23:13;;;;;;;3.30;1.45;;;;;;;;;;5058017;28;20045;-71
2022/10/15 05:25:39;;;;;;;1.73;1.00;;;;;;;;;;5057113;28;20099;-71
2022/10/15 05:28:05;;;;;;;6.03;1.45;;;;;;;;;;5059117;28;20045;-70
2022/10/15 05:30:32;;;;;;;2.90;1.15;;;;;;;;;;5062966;28;20073;-70
2022/10/15 05:32:58;;;;;;;1.60;0.95;;;;;;;;;;5076808;28;20044;-71
2022/10/15 05:35:24;;;;;;;3.88;1.23;;;;;;;;;;5052958;28;20040;-70
2022/10/15 05:37:50;;;;;;;7.05;1.15;;;;;;;;;;5078699;28;20036;-70
2022/10/15 05:40:17;;;;;;;2.42;1.00;;;;;;;;;;5077192;28;20434;-71
2022/10/15 05:42:43;;;;;;;2.88;1.52;;;;;;;;;;5057962;28;20033;-71
2022/10/15 05:45:09;;;;;;;0.73;0.60;;;;;;;;;;5056924;28;20130;-71
2022/10/15 05:47:35;;;;;;;1.70;1.05;;;;;;;;;;5076072;28;20037;-71
2022/10/15 05:50:01;;;;;;;4.60;1.50;;;;;;;;;;5076306;28;20048;-70
2022/10/15 05:52:27;;;;;;;2.60;1.58;;;;;;;;;;5052793;28;20133;-70
2022/10/15 05:54:53;;;;;;;3.35;0.90;;;;;;;;;;5067931;28;20048;-71
2022/10/15 05:57:19;;;;;;;1.10;0.73;;;;;;;;;;5078021;28;20041;-69
2022/10/15 05:59:45;;;;;;;3.10;1.58;;;;;;;;;;5053691;28;20032;-70
2022/10/15 06:02:14;;;;;;;2.80;0.98;;;;;;;;;;5069336;28;20048;-70
2022/10/15 06:04:41;;;;;;;2.70;0.82;;;;;;;;;;5054608;28;20036;-70
2022/10/15 06:07:07;;;;;;;4.78;1.20;;;;;;;;;;5076851;28;20056;-70
2022/10/15 06:09:33;;;;;;;4.32;1.65;;;;;;;;;;5053717;28;20040;-70
2022/10/15 06:11:59;;;;;;;2.80;0.98;;;;;;;;;;5076643;28;20052;-72
2022/10/15 06:14:25;;;;;;;1.25;0.70;;;;;;;;;;5078800;28;20052;-71
2022/10/15 06:16:53;;;;;;;1.35;0.63;;;;;;;;;;5056702;28;20037;-71
2022/10/15 06:19:19;;;;;;;4.40;0.93;;;;;;;;;;5058656;28;20090;-71
2022/10/15 06:21:45;;;;;;;1.42;0.70;;;;;;;;;;5067241;28;20052;-71
2022/10/15 06:24:11;;;;;;;3.00;0.90;;;;;;;;;;5077247;28;20132;-71
2022/10/15 06:26:38;;;;;;;1.08;0.73;;;;;;;;;;5052085;28;20155;-70
2022/10/15 06:29:04;;;;;;;2.50;1.38;;;;;;;;;;5077009;28;20036;-71
2022/10/15 06:31:30;;;;;;;0.95;0.52;;;;;;;;;;5078519;28;20151;-71
2022/10/15 06:33:57;;;;;;;1.48;0.73;;;;;;;;;;5075522;28;20036;-71
2022/10/15 06:36:24;;;;;;;2.70;0.90;;;;;;;;;;5076502;28;20047;-71
2022/10/15 06:38:50;;;;;;;0.75;0.63;;;;;;;;;;5067489;28;20134;-71
2022/10/15 06:41:17;;;;;;;0.43;0.43;;;;;;;;;;5051136;28;20871;-71
2022/10/15 06:43:44;;;;;;;0.95;0.50;;;;;;;;;;5092609;28;20036;-71
2022/10/15 06:46:11;;;;;;;0.88;0.60;;;;;;;;;;5076669;28;20510;-71
2022/10/15 06:48:37;;;;;;;1.88;0.60;;;;;;;;;;5052545;28;20033;-71
2022/10/15 06:51:04;;;;;;;3.42;1.98;;;;;;;;;;5075673;28;20119;-71
2022/10/15 06:53:30;;;;;;;2.28;1.52;;;;;;;;;;5077401;28;20048;-71
2022/10/15 06:56:00;;;;;;;1.33;1.00;;;;;;;;;;5051256;28;20044;-71
2022/10/15 06:58:26;;;;;;;2.92;1.20;;;;;;;;;;5055472;28;20150;-71
2022/10/15 07:00:53;;;;;;;0.95;0.82;;;;;;;;;;5050498;28;21198;-70
2022/10/15 07:03:19;;;;;;;3.20;1.38;;;;;;;;;;5075018;28;20048;-71
2022/10/15 07:05:45;;;;;;;2.25;1.40;;;;;;;;;;5056379;28;20041;-71
2022/10/15 07:08:11;;;;;;;5.68;3.72;;;;;;;;;;5076340;28;20052;-70
2022/10/15 07:10:37;;;;;;;3.33;2.40;;;;;;;;;;5055768;28;20119;-71
2022/10/15 07:13:03;;;;;;;3.75;2.50;;;;;;;;;;5074715;28;20036;-71
2022/10/15 07:15:30;;;;;;;3.35;1.95;;;;;;;;;;5076105;28;20463;-71
2022/10/15 07:18:00;;;;;;;1.85;1.10;;;;;;;;;;5076531;28;20072;-71
2022/10/15 07:20:26;;;;;;;2.25;1.83;;;;;;;;;;5075575;28;20079;-71
2022/10/15 07:22:56;;;;;;;1.75;1.05;;;;;;;;;;5076298;28;20124;-72
2022/10/15 07:25:22;;;;;;;1.67;1.20;;;;;;;;;;5077896;28;20041;-71
2022/10/15 07:27:48;;;;;;;2.83;1.23;;;;;;;;;;5079539;28;20025;-71
2022/10/15 07:30:14;;;;;;;1.35;1.00;;;;;;;;;;5079609;28;20083;-71
2022/10/15 07:32:40;;;;;;;2.47;1.38;;;;;;;;;;5077985;28;20036;-72
2022/10/15 07:35:06;;;;;;;1.55;0.88;;;;;;;;;;5059743;28;20037;-71
2022/10/15 07:37:32;;;;;;;1.50;0.70;;;;;;;;;;5079519;28;20151;-71
2022/10/15 07:39:58;;;;;;;2.50;1.02;;;;;;;;;;5054526;28;20061;-71
2022/10/15 07:42:25;;;;;;;1.17;0.80;;;;;;;;;;5078401;28;20072;-71
2022/10/15 07:44:51;;;;;;;1.70;0.70;;;;;;;;;;5060150;28;20040;-71
2022/10/15 07:47:17;;;;;;;0.65;0.65;;;;;;;;;;5061751;28;20112;-71
2022/10/15 07:49:43;;;;;;;0.85;0.60;;;;;;;;;;5059929;28;20054;-71
2022/10/15 07:52:09;;;;;;;1.42;1.08;;;;;;;;;;5079404;28;20628;-71
2022/10/15 07:54:35;;;;;;;2.22;0.73;;;;;;;;;;5079033;28;20044;-71
2022/10/15 07:57:02;;;;;;;1.35;1.10;;;;;;;;;;5060051;28;20051;-71
2022/10/15 07:59:28;;;;;;;1.13;0.82;;;;;;;;;;5056585;28;20041;-71
2022/10/15 08:01:54;;;;;;;1.42;0.90;;;;;;;;;;5058659;28;20063;-70
2022/10/15 08:04:20;;;;;;;2.95;1.30;;;;;;;;;;5054597;28;20545;-70
2022/10/15 08:06:48;;;;;;;3.35;1.30;;;;;;;;;;5078492;28;20037;-71
2022/10/15 08:09:14;;;;;;;1.30;0.85;;;;;;;;;;5059603;28;20132;-70
2022/10/15 08:11:40;;;;;;;1.60;1.23;;;;;;;;;;5059860;28;20036;-71
2022/10/15 08:14:07;;;;;;;2.67;1.40;;;;;;;;;;5079573;28;20067;-71
2022/10/15 08:16:35;;;;;;;3.25;0.93;;;;;;;;;;5059359;28;20037;-71
2022/10/15 08:19:01;;;;;;;2.85;0.90;;;;;;;;;;5078564;28;20047;-70
2022/10/15 08:21:27;;;;;;;2.40;0.88;;;;;;;;;;5077535;28;20051;-71
2022/10/15 08:23:53;;;;;;;1.73;0.80;;;;;;;;;;5077621;28;20044;-71
2022/10/15 08:26:20;;;;;;;1.48;1.10;;;;;;;;;;5054475;28;20046;-71
2022/10/15 08:28:46;;;;;;;2.75;2.55;;;;;;;;;;5078076;28;20059;-71
2022/10/15 08:31:12;;;;;;;4.80;1.13;;;;;;;;;;5079351;28;20052;-70
2022/10/15 08:33:38;;;;;;;2.10;1.05;;;;;;;;;;5060641;28;20037;-71
2022/10/15 08:36:05;;;;;;;3.50;0.98;;;;;;;;;;5076813;28;20048;-71
2022/10/15 08:38:31;;;;;;;2.22;0.82;;;;;;;;;;5054723;28;20092;-71
2022/10/15 08:40:59;;;;;;;5.25;1.23;;;;;;;;;;5078405;28;20025;-71
2022/10/15 08:43:36;;;;;;;1.95;0.93;;;;;;;;;;5079174;28;20043;-71
2022/10/15 08:46:03;;;;;;;3.75;1.27;;;;;;;;;;5058473;28;20175;-71
2022/10/15 08:48:44;;;;;;;6.38;0.95;;;;;;;;;;5076778;28;20048;-71
2022/10/15 08:51:11;;;;;;;2.55;1.10;;;;;;;;;;5076774;28;20040;-72
2022/10/15 08:53:39;;;;;;;0.98;0.90;;;;;;;;;;5078326;28;20127;-71
2022/10/15 08:56:11;;;;;;;1.38;0.68;;;;;;;;;;5058006;28;20152;-71
2022/10/15 08:58:37;;;;;;;;;;;;;;;;;;5060167;28;20146;-71
2022/10/15 09:01:03;;;;;;;8.77;1.45;;;;;;;;;;5075948;28;20377;-71
2022/10/15 09:03:38;;;;;;;1.38;1.27;;;;;;;;;;5078958;28;20112;-71
2022/10/15 09:06:17;;;;;;;1.30;0.60;;;;;;;;;;5079125;28;20045;-71
2022/10/15 09:09:01;;;;;;;2.10;0.85;;;;;;;;;;5059089;28;20115;-71
2022/10/15 09:11:31;;;;;;;1.17;0.55;;;;;;;;;;5077505;28;20098;-71
2022/10/15 09:13:57;;;;;;;0.60;0.50;;;;;;;;;;5060455;28;20044;-71
2022/10/15 09:16:32;;;;;;;1.85;0.95;;;;;;;;;;5077247;28;20113;-71
2022/10/15 09:19:01;;;;;;;0.47;0.40;;;;;;;;;;5077704;28;20045;-71
2022/10/15 09:21:28;;;;;;;2.08;1.20;;;;;;;;;;5076747;28;20099;-71
2022/10/15 09:23:56;;;;;;;0.60;0.50;;;;;;;;;;5058372;28;20040;-70
2022/10/15 09:26:54;;;;;;;0.95;0.40;;;;;;;;;;5059532;28;20044;-71
2022/10/15 09:29:24;;;;;;;1.42;1.00;;;;;;;;;;5031671;28;20041;-71
2022/10/15 09:32:04;;;;;;;0.63;0.40;;;;;;;;;;5077733;28;21164;-70
2022/10/15 09:34:33;;;;;;;0.80;0.50;;;;;;;;;;5078249;28;20063;-70
2022/10/15 09:37:06;;;;;;;0.50;0.40;;;;;;;;;;5054951;28;20605;-70
2022/10/15 09:39:32;;;;;;;0.75;0.63;;;;;;;;;;5053335;28;20055;-71
2022/10/15 09:41:58;;;;;;;1.23;0.57;;;;;;;;;;5053629;28;20518;-71
2022/10/15 09:44:27;;;;;;;0.55;0.47;;;;;;;;;;5078863;28;20134;-71
2022/10/15 09:46:53;;;;;;;2.95;1.17;;;;;;;;;;5056799;28;20048;-71
2022/10/15 09:49:24;;;;;;;2.60;0.80;;;;;;;;;;5076248;28;20049;-70
2022/10/15 09:51:56;;;;;;;0.60;0.40;;;;;;;;;;5077344;28;20579;-71
2022/10/15 09:54:27;;;;;;;2.47;0.75;;;;;;;;;;5077289;28;20052;-71
2022/10/15 09:56:55;;;;;;;0.80;0.40;;;;;;;;;;5056099;28;20051;-71
2022/10/15 09:59:21;;;;;;;5.18;0.70;;;;;;;;;;5057306;28;20067;-70
2022/10/15 10:02:05;;;;;;;2.45;0.60;;;;;;;;;;5077219;28;20044;-70
2022/10/15 10:04:32;;;;;;;1.17;0.45;;;;;;;;;;5057469;28;20037;-71
2022/10/15 10:07:03;;;;;;;0.75;0.68;;;;;;;;;;5057242;28;20092;-71
2022/10/15 10:09:33;;;;;;;1.02;0.60;;;;;;;;;;5057912;28;20048;-70
2022/10/15 10:12:01;;;;;;;4.38;1.92;;;;;;;;;;5077279;28;20102;-70
2022/10/15 10:14:30;;;;;;;0.57;0.55;;;;;;;;;;5076554;28;20075;-71
2022/10/15 10:17:15;;;;;;;4.43;1.02;;;;;;;;;;5075480;28;20044;-70
2022/10/15 10:19:41;;;;;;;0.82;0.52;;;;;;;;;;5076964;28;20509;-71
2022/10/15 10:22:13;;;;;;;1.65;0.85;;;;;;;;;;5067361;28;20041;-71
2022/10/15 10:24:39;;;;;;;0.43;0.43;;;;;;;;;;5052658;28;20048;-71
2022/10/15 10:27:16;;;;;;;0.80;0.65;;;;;;;;;;5056671;28;20048;-70
2022/10/15 10:29:47;;;;;;;1.52;1.00;;;;;;;;;;5057246;28;20048;-71
2022/10/15 10:32:20;;;;;;;2.63;1.42;;;;;;;;;;5051802;28;20458;-71
2022/10/15 10:34:46;;;;;;;1.67;1.02;;;;;;;;;;5077126;28;20045;-70
2022/10/15 10:37:12;;;;;;;2.72;0.77;;;;;;;;;;5051143;28;20530;-70
2022/10/15 10:39:39;;;;;;;1.27;0.82;;;;;;;;;;5068531;28;20131;-71
2022/10/15 10:42:06;;;;;;;1.15;0.68;;;;;;;;;;5077327;28;20037;-71
2022/10/15 10:44:32;;;;;;;1.95;0.90;;;;;;;;;;5066170;28;20040;-70
2022/10/15 10:47:01;;;;;;;2.35;0.90;;;;;;;;;;5074258;28;20522;-70
2022/10/15 10:49:31;;;;;;;1.08;0.45;;;;;;;;;;5092632;28;21248;-70
2022/10/15 10:51:57;;;;;;;1.48;0.52;;;;;;;;;;5052282;28;20048;-70
2022/10/15 10:54:24;;;;;;;0.95;0.60;;;;;;;;;;5052439;28;20048;-71
2022/10/15 10:56:52;;;;;;;1.10;0.50;;;;;;;;;;5076167;28;20041;-70
2022/10/15 10:59:34;;;;;;;2.97;0.90;;;;;;;;;;5058085;28;20123;-71
2022/10/15 11:02:00;;;;;;;1.13;0.47;;;;;;;;;;5058030;28;20476;-70
2022/10/15 11:04:27;;;;;;;0.17;0.15;;;;;;;;;;5079049;28;20514;-70
2022/10/15 11:07:12;;;;;;;1.33;0.40;;;;;;;;;;5078896;28;20430;-71
2022/10/15 11:09:57;;;;;;;0.82;0.50;;;;;;;;;;5077056;28;20055;-70
2022/10/15 11:12:41;;;;;;;1.48;0.38;;;;;;;;;;5078701;28;20063;-71
2022/10/15 11:15:13;;;;;;;0.68;0.47;;;;;;;;;;5078147;28;20088;-70
2022/10/15 11:17:50;;;;;;;0.65;0.40;;;;;;;;;;5079372;28;20589;-70
2022/10/15 11:20:22;;;;;;;1.40;0.50;;;;;;;;;;5079182;28;20442;-71
2022/10/15 11:22:51;;;;;;;2.05;0.40;;;;;;;;;;5078334;28;20537;-71
2022/10/15 11:25:23;;;;;;;1.55;0.60;;;;;;;;;;5077561;28;21327;-71
2022/10/15 11:27:49;;;;;;;0.68;0.45;;;;;;;;;;5081210;28;20626;-70
2022/10/15 11:30:27;;;;;;;0.43;0.40;;;;;;;;;;5054010;28;20660;-71
2022/10/15 11:33:00;;;;;;;0.20;0.20;;;;;;;;;;5079927;28;20261;-71
2022/10/15 11:35:29;;;;;;;0.93;0.60;;;;;;;;;;5078656;28;20044;-70
2022/10/15 11:38:14;;;;;;;0.88;0.57;;;;;;;;;;5078848;28;20114;-70
2022/10/15 11:40:58;;;;;;;0.60;0.50;;;;;;;;;;5080171;28;20553;-71
2022/10/15 11:43:34;;;;;;;0.70;0.40;;;;;;;;;;5059103;28;20051;-71
2022/10/15 11:46:09;;;;;;;1.38;0.38;;;;;;;;;;5079528;28;20062;-71
2022/10/15 11:48:38;;;;;;;0.45;0.35;;;;;;;;;;5079614;28;20048;-70
2022/10/15 11:51:22;;;;;;;0.60;0.30;;;;;;;;;;5078880;28;20052;-71
2022/10/15 11:53:56;;;;;;;2.42;0.43;;;;;;;;;;5077972;28;20044;-71
2022/10/15 11:56:25;;;;;;;0.32;0.30;;;;;;;;;;5059957;28;20043;-70
2022/10/15 11:58:58;;;;;;;0.75;0.47;;;;;;;;;;5053916;28;20067;-71
2022/10/15 12:01:27;;;;;;;0.75;0.75;;;;;;;;;;5054982;28;20047;-70
2022/10/15 12:03:56;;;;;;;1.08;0.30;;;;;;;;;;5078328;28;20127;-71
2022/10/15 12:06:25;;;;;;;0.65;0.25;;;;;;;;;;5059887;28;20036;-70
2022/10/15 12:08:52;;;;;;;0.30;0.20;;;;;;;;;;5058782;28;20056;-71
2022/10/15 12:11:41;;;;;;;1.08;0.32;;;;;;;;;;5058066;28;20063;-70
2022/10/15 12:14:14;;;;;;;0.80;0.20;;;;;;;;;;5078096;28;20044;-71
2022/10/15 12:16:53;;;;;;;0.88;0.30;;;;;;;;;;5053425;28;20231;-71
2022/10/15 12:19:21;;;;;;;1.13;0.30;;;;;;;;;;5078745;28;20048;-70
2022/10/15 12:21:56;;;;;;;1.85;0.40;;;;;;;;;;5077112;28;20041;-71
2022/10/15 12:24:43;;;;;;;1.00;0.90;;;;;;;;;;5069114;28;20039;-72
2022/10/15 12:27:19;;;;;;;0.30;0.30;;;;;;;;;;5077119;28;20040;-70
2022/10/15 12:29:49;;;;;;;3.10;0.40;;;;;;;;;;5051990;28;20098;-70
2022/10/15 12:32:21;;;;;;;0.45;0.30;;;;;;;;;;5094908;28;20048;-71
2022/10/15 12:34:53;;;;;;;0.77;0.50;;;;;;;;;;5076323;28;20066;-71
2022/10/15 12:37:21;;;;;;;1.15;0.60;;;;;;;;;;5053747;28;20044;-71
2022/10/15 12:39:53;;;;;;;0.40;0.30;;;;;;;;;;5077344;28;20049;-71
2022/10/15 12:42:26;;;;;;;2.83;0.40;;;;;;;;;;5059376;28;20043;-70
2022/10/15 12:44:52;;;;;;;1.83;0.35;;;;;;;;;;5056901;28;20044;-72
2022/10/15 12:47:37;;;;;;;0.55;0.22;;;;;;;;;;5079525;28;20055;-70
2022/10/15 12:50:04;;;;;;;0.40;0.30;;;;;;;;;;5054037;28;20059;-70
2022/10/15 12:52:49;;;;;;;2.60;0.43;;;;;;;;;;5078083;28;20043;-70
2022/10/15 12:55:23;;;;;;;0.57;0.32;;;;;;;;;;5077305;28;20092;-71
2022/10/15 12:57:57;;;;;;;6.35;0.40;;;;;;;;;;5059649;28;20041;-71
2022/10/15 13:00:28;;;;;;;1.02;0.40;;;;;;;;;;5059404;28;20037;-71
2022/10/15 13:02:59;;;;;;;1.10;0.40;;;;;;;;;;5079728;28;20965;-70
2022/10/15 13:05:27;;;;;;;1.40;0.40;;;;;;;;;;5058459;28;20051;-70
2022/10/15 13:07:55;;;;;;;0.20;0.20;;;;;;;;;;5060470;28;20875;-71
2022/10/15 13:10:24;;;;;;;0.90;0.43;;;;;;;;;;5077739;28;20048;-71
2022/10/15 13:12:53;;;;;;;0.50;0.40;;;;;;;;;;5060109;28;20539;-70
2022/10/15 13:15:20;;;;;;;0.82;0.80;;;;;;;;;;5075406;28;20040;-70
2022/10/15 13:17:46;;;;;;;1.10;0.30;;;;;;;;;;5052445;28;20090;-70
2022/10/15 13:20:31;;;;;;;1.45;0.32;;;;;;;;;;5058281;28;20032;-71
2022/10/15 13:23:16;;;;;;;0.47;0.30;;;;;;;;;;5059267;28;20052;-70
2022/10/15 13:25:42;;;;;;;0.30;0.22;;;;;;;;;;5077540;28;20071;-71
2022/10/15 13:28:27;;;;;;;0.70;0.55;;;;;;;;;;5077460;28;20095;-71
2022/10/15 13:30:53;;;;;;;2.30;0.38;;;;;;;;;;5056191;28;20047;-71
2022/10/15 13:33:20;;;;;;;0.40;0.35;;;;;;;;;;5056726;28;20554;-70
2022/10/15 13:35:46;;;;;;;0.65;0.40;;;;;;;;;;5040971;28;20045;-71
2022/10/15 13:38:20;;;;;;;0.57;0.40;;;;;;;;;;5038757;28;20107;-70
2022/10/15 13:40:48;;;;;;;0.63;0.50;;;;;;;;;;5057103;28;20036;-70
2022/10/15 13:43:24;;;;;;;0.28;0.28;;;;;;;;;;5055370;28;20087;-70
2022/10/15 13:45:54;;;;;;;0.43;0.35;;;;;;;;;;5055190;28;20044;-70
2022/10/15 13:48:21;;;;;;;2.10;0.50;;;;;;;;;;5039555;28;20037;-70
2022/10/15 13:50:52;;;;;;;0.20;0.20;;;;;;;;;;5032841;28;20044;-71
2022/10/15 13:53:35;;;;;;;0.70;0.40;;;;;;;;;;5038534;28;20592;-70
2022/10/15 13:56:04;;;;;;;0.40;0.40;;;;;;;;;;5057118;28;20500;-70
2022/10/15 13:58:32;;;;;;;4.93;0.70;;;;;;;;;;5057700;28;20597;-70
2022/10/15 14:01:16;;;;;;;0.40;0.40;;;;;;;;;;5056189;28;20549;-70
2022/10/15 14:03:48;;;;;;;1.58;0.60;;;;;;;;;;5038591;28;20069;-70
2022/10/15 14:06:18;;;;;;;1.15;0.70;;;;;;;;;;5055767;28;20048;-71
2022/10/15 14:08:45;;;;;;;1.50;0.70;;;;;;;;;;5057581;28;20547;-71
2022/10/15 14:11:12;;;;;;;0.45;0.40;;;;;;;;;;5054518;28;20152;-71
2022/10/15 14:13:45;;;;;;;1.17;0.50;;;;;;;;;;5057084;28;20076;-71
2022/10/15 14:16:13;;;;;;;0.70;0.50;;;;;;;;;;5055794;28;20052;-71
2022/10/15 14:18:42;;;;;;;1.15;0.50;;;;;;;;;;5055320;28;20036;-71
2022/10/15 14:21:17;;;;;;;0.73;0.50;;;;;;;;;;5056857;28;20084;-69
2022/10/15 14:23:44;;;;;;;0.30;0.30;;;;;;;;;;5055445;28;20055;-70
2022/10/15 14:26:11;;;;;;;1.73;0.50;;;;;;;;;;5057145;28;20075;-70
2022/10/15 14:28:37;;;;;;;0.63;0.60;;;;;;;;;;5037723;28;20679;-70
2022/10/15 14:31:04;;;;;;;1.58;0.80;;;;;;;;;;5047005;28;20253;-70
2022/10/15 14:33:39;;;;;;;1.13;0.75;;;;;;;;;;5056671;28;20041;-70
2022/10/15 14:36:11;;;;;;;2.03;0.90;;;;;;;;;;5032105;28;20071;-70
2022/10/15 14:38:37;;;;;;;0.35;0.30;;;;;;;;;;5058396;28;20056;-70
2022/10/15 14:41:08;;;;;;;0.85;0.60;;;;;;;;;;5055554;28;20044;-71
2022/10/15 14:43:37;;;;;;;1.58;0.60;;;;;;;;;;5056339;28;20048;-70
2022/10/15 14:46:05;;;;;;;1.40;0.52;;;;;;;;;;5056983;28;20158;-70
2022/10/15 14:48:33;;;;;;;1.05;0.60;;;;;;;;;;5033551;28;20033;-69
2022/10/15 14:51:00;;;;;;;1.13;0.82;;;;;;;;;;5056919;28;20087;-70
2022/10/15 14:53:33;;;;;;;0.95;0.80;;;;;;;;;;5038998;28;20087;-71
2022/10/15 14:56:01;;;;;;;1.20;0.85;;;;;;;;;;5056382;28;20033;-71